TimeCST,TemperatureF,Dew PointF,Humidity,Sea Level PressureIn,VisibilityMPH,Wind Direction,Wind SpeedMPH,Gust SpeedMPH,PrecipitationIn,Events,Conditions,WindDirDegrees,DateUTC
12:15 AM,13.6,4.1,66,30.02,10.0,NW,10.4,-,N/A,,Scattered Clouds,320,2013-01-17 06:15:00
12:35 AM,13.5,4.1,66,30.04,10.0,NW,9.2,-,N/A,,Scattered Clouds,310,2013-01-17 06:35:00
12:55 AM,12.9,4.1,68,30.05,10.0,NW,10.4,-,N/A,,Mostly Cloudy,310,2013-01-17 06:55:00
1:15 AM,12.2,3.2,67,30.07,10.0,NW,9.2,16.1,N/A,,Scattered Clouds,310,2013-01-17 07:15:00
1:35 AM,11.5,2.7,68,30.08,10.0,NW,11.5,-,N/A,,Clear,310,2013-01-17 07:35:00
2:15 AM,10.4,2.3,70,30.10,10.0,WNW,10.4,-,N/A,,Clear,300,2013-01-17 08:15:00
2:35 AM,10.0,2.3,71,30.11,10.0,WNW,11.5,-,N/A,,Clear,300,2013-01-17 08:35:00
2:55 AM,9.5,1.9,71,30.10,10.0,NW,10.4,-,N/A,,Clear,320,2013-01-17 08:55:00
3:35 AM,8.6,1.0,71,30.10,10.0,NW,10.4,-,N/A,,Clear,320,2013-01-17 09:35:00
3:55 AM,8.1,0.9,72,30.10,10.0,NW,6.9,-,N/A,,Clear,310,2013-01-17 09:55:00
4:15 AM,7.7,0.3,72,30.11,10.0,NW,11.5,-,N/A,,Clear,320,2013-01-17 10:15:00
4:35 AM,7.2,-0.4,71,30.12,10.0,NW,8.1,-,N/A,,Clear,310,2013-01-17 10:35:00
4:55 AM,6.6,-0.4,73,30.13,10.0,NW,8.1,-,N/A,,Clear,310,2013-01-17 10:55:00
5:15 AM,5.9,-0.8,74,30.13,10.0,NW,8.1,-,N/A,,Clear,320,2013-01-17 11:15:00
5:35 AM,5.2,-1.1,75,30.13,10.0,NW,6.9,-,N/A,,Clear,320,2013-01-17 11:35:00
6:15 AM,4.6,-1.5,76,30.15,10.0,WNW,6.9,-,N/A,,Clear,300,2013-01-17 12:15:00
6:35 AM,4.5,-2.2,74,30.16,10.0,NW,5.8,-,N/A,,Clear,310,2013-01-17 12:35:00
6:55 AM,3.9,-2.2,76,30.17,10.0,WNW,5.8,-,N/A,,Clear,290,2013-01-17 12:55:00
7:15 AM,3.9,-2.2,76,30.19,10.0,WNW,8.1,-,N/A,,Clear,300,2013-01-17 13:15:00
7:35 AM,3.2,-2.2,78,30.19,10.0,WNW,6.9,-,N/A,,Clear,300,2013-01-17 13:35:00
7:55 AM,3.6,-2.2,77,30.20,10.0,NW,9.2,-,N/A,,Clear,310,2013-01-17 13:55:00
8:15 AM,3.7,-2.2,76,30.21,10.0,WNW,10.4,-,N/A,,Clear,300,2013-01-17 14:15:00
8:35 AM,4.1,-3.1,72,30.22,10.0,NW,9.2,-,N/A,,Clear,310,2013-01-17 14:35:00
8:55 AM,4.1,-5.1,66,30.22,10.0,NW,11.5,16.1,N/A,,Clear,320,2013-01-17 14:55:00
9:15 AM,4.5,-6.2,62,30.23,10.0,NW,12.7,20.7,N/A,,Clear,310,2013-01-17 15:15:00
9:35 AM,5.5,-5.4,61,30.23,10.0,NW,10.4,-,N/A,,Clear,320,2013-01-17 15:35:00
9:55 AM,6.3,-5.8,58,30.22,10.0,WNW,8.1,-,N/A,,Clear,290,2013-01-17 15:55:00
10:15 AM,6.6,-6.3,55,30.22,10.0,NW,9.2,-,N/A,,Mostly Cloudy,310,2013-01-17 16:15:00
10:35 AM,7.7,-4.2,58,30.22,10.0,WNW,11.5,-,N/A,,Overcast,300,2013-01-17 16:35:00
10:55 AM,7.7,-4.9,56,30.23,10.0,NW,9.2,-,N/A,,Overcast,320,2013-01-17 16:55:00
11:15 AM,8.6,-5.1,54,30.21,10.0,WNW,10.4,-,N/A,,Mostly Cloudy,290,2013-01-17 17:15:00
11:35 AM,9.5,-4.9,52,30.21,10.0,WNW,10.4,16.1,N/A,,Clear,290,2013-01-17 17:35:00
11:55 AM,10.0,-4.9,51,30.21,10.0,NW,11.5,16.1,N/A,,Clear,310,2013-01-17 17:55:00
12:15 PM,11.1,-4.5,49,30.21,10.0,West,16.1,20.7,N/A,,Mostly Cloudy,280,2013-01-17 18:15:00
12:35 PM,10.4,-4.0,52,30.22,10.0,WNW,17.3,21.9,N/A,,Overcast,290,2013-01-17 18:35:00
12:55 PM,10.8,-2.9,54,30.21,10.0,WNW,15.0,19.6,N/A,,Overcast,300,2013-01-17 18:55:00
1:15 PM,10.8,-2.2,56,30.20,10.0,West,11.5,-,N/A,,Overcast,280,2013-01-17 19:15:00
1:35 PM,10.9,-2.2,56,30.20,10.0,West,13.8,-,N/A,,Overcast,280,2013-01-17 19:35:00
1:55 PM,11.5,-1.3,57,30.20,10.0,WNW,13.8,18.4,N/A,,Overcast,290,2013-01-17 19:55:00
2:15 PM,11.1,-1.7,57,30.20,10.0,WNW,16.1,21.9,N/A,,Overcast,290,2013-01-17 20:15:00
2:35 PM,11.5,-0.8,58,30.20,10.0,WNW,13.8,19.6,N/A,,Overcast,300,2013-01-17 20:35:00
2:55 PM,11.7,-1.3,56,30.20,10.0,NW,13.8,20.7,N/A,,Overcast,310,2013-01-17 20:55:00
3:15 PM,10.2,-2.0,58,30.21,10.0,WNW,12.7,-,N/A,,Scattered Clouds,300,2013-01-17 21:15:00
3:35 PM,11.3,-1.7,56,30.21,10.0,WNW,12.7,17.3,N/A,,Clear,290,2013-01-17 21:35:00
3:55 PM,10.9,-2.0,56,30.22,10.0,WNW,8.1,-,N/A,,Scattered Clouds,300,2013-01-17 21:55:00
4:55 PM,8.6,-2.0,62,30.24,10.0,WNW,9.2,16.1,N/A,,Clear,290,2013-01-17 22:55:00
5:35 PM,7.7,-2.0,65,30.24,10.0,WNW,8.1,-,N/A,,Clear,300,2013-01-17 23:35:00
7:15 PM,5.0,-2.7,70,30.27,10.0,WNW,4.6,-,N/A,,Clear,300,2013-01-18 01:15:00
7:55 PM,4.1,-3.1,72,30.27,10.0,NW,4.6,-,N/A,,Clear,310,2013-01-18 01:55:00
8:15 PM,4.1,-3.3,71,30.27,10.0,NW,4.6,-,N/A,,Clear,310,2013-01-18 02:15:00
8:55 PM,3.2,-3.1,75,30.27,10.0,NW,5.8,-,N/A,,Clear,310,2013-01-18 02:55:00
9:15 PM,3.2,-3.3,74,30.27,10.0,WNW,5.8,-,N/A,,Clear,300,2013-01-18 03:15:00
9:35 PM,2.8,-3.6,74,30.27,10.0,WNW,5.8,-,N/A,,Clear,300,2013-01-18 03:35:00
9:55 PM,2.5,-3.6,76,30.27,10.0,WNW,4.6,-,N/A,,Clear,300,2013-01-18 03:55:00
11:15 PM,1.0,-4.0,79,30.27,10.0,West,3.5,-,N/A,,Clear,260,2013-01-18 05:15:00
11:35 PM,0.7,-4.0,81,30.27,10.0,West,3.5,-,N/A,,Clear,260,2013-01-18 05:35:00
11:55 PM,0.3,-4.0,82,30.27,10.0,Calm,Calm,-,N/A,,Clear,0,2013-01-18 05:55:00